Pelagia — PGRQ — position and weather

sailwx.info

Track history (hours):
 
Tides and Currents Weather Stations Pressure Air Temp Water Temp Dewpoint Dewpoint Depression Visibility Wind Speed Wind Dir Waves Ship Positions

Oceanographic research ship Pelagia (Netherlands)

Detailed information on ship capabilities available from University of Delaware's Ocean Information Center and ARCUS's ALIAS (Arctic Logistics Information and Support) project.

Last reported at 2016-Sep-17 13:14 UTC. Time now 2016-Oct-01 22:25 UTC.
Position N 08°01' W 079°27'.
Warning: this ship's position is 14 days out of date.

Length 66 m; beam 13 m.

Type: Other ship. MMSI: 244925000.

Date/timePositionNaut miles runAvg speedWind from/ knotsBaromVisibWave heightAir tempDewpointWater temp
2016-Sep-17 13:14N 08°01' W 079°27'1011.3
2016-Sep-17 12:21N 08°11' W 079°27'2211.0
2016-Sep-17 10:23N 08°32' W 079°28'910.8
2016-Sep-17 09:33N 08°41' W 079°28'1010.2
2016-Sep-17 08:32N 08°51' W 079°30'8 7.8
2016-Sep-17 07:32N 08°58' W 079°34'4 2.0
2016-Sep-17 05:30N 09°01' W 079°37'2 2.2
2016-Sep-17 04:33N 09°02' W 079°39'22 5.6
2016-Sep-17 00:33N 09°17' W 079°55'4 0.5
2016-Sep-16 17:30N 09°21' W 079°54'0 0.0
2016-Sep-16 15:33N 09°21' W 079°54'0 0.0
2016-Sep-16 12:33N 09°21' W 079°54'0 0.0
2016-Sep-16 09:29N 09°21' W 079°54'0 0.0
2016-Sep-16 07:30N 09°21' W 079°54'0 0.0
2016-Sep-16 03:33N 09°21' W 079°54'0 0.0
2016-Sep-16 02:33N 09°21' W 079°54'0 0.0
2016-Sep-16 00:27N 09°21' W 079°54'0 0.0
2016-Sep-15 22:33N 09°21' W 079°54'0 0.0
2016-Sep-15 21:33N 09°21' W 079°54'0 0.0
2016-Sep-15 20:33N 09°21' W 079°54'0 0.0
2016-Sep-15 18:30N 09°21' W 079°54'0 0.0
2016-Sep-15 12:33N 09°21' W 079°54'0 0.0
2016-Sep-15 11:30N 09°21' W 079°54'0 0.0
2016-Sep-15 04:32N 09°21' W 079°54'0 0.0
2016-Sep-15 03:32N 09°21' W 079°54'0 0.0
2016-Sep-15 01:32N 09°21' W 079°54'0 0.0
2016-Sep-14 22:23N 09°21' W 079°54'0 0.0
2016-Sep-14 21:32N 09°21' W 079°54'0 0.0
2016-Sep-14 17:32N 09°21' W 079°54'0 0.0
2016-Sep-14 16:33N 09°21' W 079°54'0 0.0
2016-Sep-14 13:33N 09°21' W 079°54'0 0.0
2016-Sep-14 12:33N 09°21' W 079°54'2 1.2
2016-Sep-14 10:31N 09°22' W 079°56'0 0.0
2016-Sep-14 09:31N 09°22' W 079°56'0 0.0
2016-Sep-14 08:31N 09°22' W 079°56'0 0.0
2016-Sep-14 07:33N 09°22' W 079°56'0 0.0
2016-Sep-14 06:34N 09°22' W 079°56'0 0.0
2016-Sep-14 03:33N 09°22' W 079°56'0 0.0
2016-Sep-13 22:33N 09°22' W 079°56'11 5.2
2016-Sep-13 20:33N 09°32' W 079°52'13 6.6
2016-Sep-13 18:33N 09°44' W 079°48'6 6.2
2016-Sep-13 17:32N 09°46' W 079°42'  
Track history (hours):
 
Tides and Currents Weather Stations Pressure Air Temp Water Temp Dewpoint Dewpoint Depression Visibility Wind Speed Wind Dir Waves Ship Positions

Oceanographic research ship Pelagia (Netherlands)

Detailed information on ship capabilities available from University of Delaware's Ocean Information Center and ARCUS's ALIAS (Arctic Logistics Information and Support) project.

Last reported at 2016-Sep-17 13:14 UTC. Time now 2016-Oct-01 22:25 UTC.
Position N 08°01' W 079°27'.
Warning: this ship's position is 14 days out of date.

Length 66 m; beam 13 m.

Type: Other ship. MMSI: 244925000.

Date/timePositionNaut miles runAvg speedWind from/ knotsBaromVisibWave heightAir tempDewpointWater temp
2016-Sep-17 13:14N 08°01' W 079°27'1011.3
2016-Sep-17 12:21N 08°11' W 079°27'2211.0
2016-Sep-17 10:23N 08°32' W 079°28'910.8
2016-Sep-17 09:33N 08°41' W 079°28'1010.2
2016-Sep-17 08:32N 08°51' W 079°30'8 7.8
2016-Sep-17 07:32N 08°58' W 079°34'4 2.0
2016-Sep-17 05:30N 09°01' W 079°37'2 2.2
2016-Sep-17 04:33N 09°02' W 079°39'22 5.6
2016-Sep-17 00:33N 09°17' W 079°55'4 0.5
2016-Sep-16 17:30N 09°21' W 079°54'0 0.0
2016-Sep-16 15:33N 09°21' W 079°54'0 0.0
2016-Sep-16 12:33N 09°21' W 079°54'0 0.0
2016-Sep-16 09:29N 09°21' W 079°54'0 0.0
2016-Sep-16 07:30N 09°21' W 079°54'0 0.0
2016-Sep-16 03:33N 09°21' W 079°54'0 0.0
2016-Sep-16 02:33N 09°21' W 079°54'0 0.0
2016-Sep-16 00:27N 09°21' W 079°54'0 0.0
2016-Sep-15 22:33N 09°21' W 079°54'0 0.0
2016-Sep-15 21:33N 09°21' W 079°54'0 0.0
2016-Sep-15 20:33N 09°21' W 079°54'0 0.0
2016-Sep-15 18:30N 09°21' W 079°54'0 0.0
2016-Sep-15 12:33N 09°21' W 079°54'0 0.0
2016-Sep-15 11:30N 09°21' W 079°54'0 0.0
2016-Sep-15 04:32N 09°21' W 079°54'0 0.0
2016-Sep-15 03:32N 09°21' W 079°54'0 0.0
2016-Sep-15 01:32N 09°21' W 079°54'0 0.0
2016-Sep-14 22:23N 09°21' W 079°54'0 0.0
2016-Sep-14 21:32N 09°21' W 079°54'0 0.0
2016-Sep-14 17:32N 09°21' W 079°54'0 0.0
2016-Sep-14 16:33N 09°21' W 079°54'0 0.0
2016-Sep-14 13:33N 09°21' W 079°54'0 0.0
2016-Sep-14 12:33N 09°21' W 079°54'2 1.2
2016-Sep-14 10:31N 09°22' W 079°56'0 0.0
2016-Sep-14 09:31N 09°22' W 079°56'0 0.0
2016-Sep-14 08:31N 09°22' W 079°56'0 0.0
2016-Sep-14 07:33N 09°22' W 079°56'0 0.0
2016-Sep-14 06:34N 09°22' W 079°56'0 0.0
2016-Sep-14 03:33N 09°22' W 079°56'0 0.0
2016-Sep-13 22:33N 09°22' W 079°56'11 5.2
2016-Sep-13 20:33N 09°32' W 079°52'13 6.6
2016-Sep-13 18:33N 09°44' W 079°48'6 6.2
2016-Sep-13 17:32N 09°46' W 079°42'  

Dump ship's entire track history